sensor_id;sensor_type;location;lat;lon;timestamp;pressure;altitude;pressure_sealevel;temperature;humidity
78121;BME280;67585;44.802;10.332;2024-03-08T00:02:23;101011.97;;;9.10;nan
78121;BME280;67585;44.802;10.332;2024-03-08T00:04:49;101034.13;;;9.17;nan
78121;BME280;67585;44.802;10.332;2024-03-08T00:07:14;101030.44;;;9.35;nan
78121;BME280;67585;44.802;10.332;2024-03-08T00:09:39;101025.44;;;9.27;nan
78121;BME280;67585;44.802;10.332;2024-03-08T00:12:05;101035.81;;;9.35;nan
78121;BME280;67585;44.802;10.332;2024-03-08T00:14:31;101017.63;;;9.26;nan
78121;BME280;67585;44.802;10.332;2024-03-08T00:16:56;101040.31;;;9.18;nan
78121;BME280;67585;44.802;10.332;2024-03-08T00:19:22;101017.75;;;9.19;nan
78121;BME280;67585;44.802;10.332;2024-03-08T00:21:47;101024.75;;;9.49;nan
78121;BME280;67585;44.802;10.332;2024-03-08T00:24:13;101032.53;;;9.62;nan
78121;BME280;67585;44.802;10.332;2024-03-08T00:26:38;101044.72;;;9.53;nan
78121;BME280;67585;44.802;10.332;2024-03-08T00:29:03;101039.81;;;9.78;nan
78121;BME280;67585;44.802;10.332;2024-03-08T00:31:29;101025.13;;;9.86;nan
78121;BME280;67585;44.802;10.332;2024-03-08T00:33:57;101030.59;;;10.08;nan
78121;BME280;67585;44.802;10.332;2024-03-08T00:36:23;101019.56;;;10.10;nan
78121;BME280;67585;44.802;10.332;2024-03-08T00:38:48;101022.53;;;10.08;nan
78121;BME280;67585;44.802;10.332;2024-03-08T00:41:13;101025.75;;;9.59;nan
78121;BME280;67585;44.802;10.332;2024-03-08T00:43:39;101025.94;;;9.70;nan
78121;BME280;67585;44.802;10.332;2024-03-08T00:46:04;101039.03;;;9.49;nan
78121;BME280;67585;44.802;10.332;2024-03-08T00:48:29;101032.09;;;9.53;nan
78121;BME280;67585;44.802;10.332;2024-03-08T00:50:56;101047.59;;;9.34;nan
78121;BME280;67585;44.802;10.332;2024-03-08T00:53:22;101042.63;;;9.55;nan
78121;BME280;67585;44.802;10.332;2024-03-08T00:55:47;101044.53;;;9.43;nan
78121;BME280;67585;44.802;10.332;2024-03-08T00:58:13;101035.09;;;9.40;nan
78121;BME280;67585;44.802;10.332;2024-03-08T01:00:38;101046.25;;;9.49;nan
78121;BME280;67585;44.802;10.332;2024-03-08T01:03:04;101038.53;;;9.52;nan
78121;BME280;67585;44.802;10.332;2024-03-08T01:05:30;101047.19;;;9.54;nan
78121;BME280;67585;44.802;10.332;2024-03-08T01:07:55;101013.84;;;9.27;nan
78121;BME280;67585;44.802;10.332;2024-03-08T01:10:21;101030.91;;;9.32;nan
78121;BME280;67585;44.802;10.332;2024-03-08T01:12:46;101029.53;;;9.30;nan
78121;BME280;67585;44.802;10.332;2024-03-08T01:15:12;101035.91;;;9.40;nan
78121;BME280;67585;44.802;10.332;2024-03-08T01:17:37;101026.16;;;9.23;nan
78121;BME280;67585;44.802;10.332;2024-03-08T01:20:04;101053.81;;;9.35;nan
78121;BME280;67585;44.802;10.332;2024-03-08T01:22:29;101028.75;;;8.77;nan
78121;BME280;67585;44.802;10.332;2024-03-08T01:24:56;101045.25;;;9.09;nan
78121;BME280;67585;44.802;10.332;2024-03-08T01:27:21;101013.56;;;8.71;nan
78121;BME280;67585;44.802;10.332;2024-03-08T01:29:47;101027.84;;;9.00;nan
78121;BME280;67585;44.802;10.332;2024-03-08T01:32:13;101015.13;;;8.95;nan
78121;BME280;67585;44.802;10.332;2024-03-08T01:34:38;101023.28;;;8.60;nan
78121;BME280;67585;44.802;10.332;2024-03-08T01:37:04;101005.19;;;8.67;nan
78121;BME280;67585;44.802;10.332;2024-03-08T01:39:29;100981.00;;;8.32;nan
78121;BME280;67585;44.802;10.332;2024-03-08T01:41:55;101006.97;;;8.50;nan
78121;BME280;67585;44.802;10.332;2024-03-08T01:44:20;101024.44;;;8.64;nan
78121;BME280;67585;44.802;10.332;2024-03-08T01:46:47;101027.22;;;8.81;nan
78121;BME280;67585;44.802;10.332;2024-03-08T01:49:14;100964.09;;;8.31;nan
78121;BME280;67585;44.802;10.332;2024-03-08T01:51:43;100996.81;;;8.40;nan
78121;BME280;67585;44.802;10.332;2024-03-08T01:54:10;101017.22;;;8.53;nan
78121;BME280;67585;44.802;10.332;2024-03-08T01:56:37;101008.34;;;8.52;nan
78121;BME280;67585;44.802;10.332;2024-03-08T01:59:04;101008.72;;;8.96;nan
78121;BME280;67585;44.802;10.332;2024-03-08T02:01:31;101016.75;;;9.08;nan
78121;BME280;67585;44.802;10.332;2024-03-08T02:03:58;101013.44;;;8.77;nan
78121;BME280;67585;44.802;10.332;2024-03-08T02:06:24;101010.78;;;8.66;nan
78121;BME280;67585;44.802;10.332;2024-03-08T02:08:49;101018.22;;;8.75;nan
78121;BME280;67585;44.802;10.332;2024-03-08T02:11:15;100984.47;;;8.80;nan
78121;BME280;67585;44.802;10.332;2024-03-08T02:13:41;100902.72;;;8.35;nan
78121;BME280;67585;44.802;10.332;2024-03-08T02:16:07;100968.06;;;8.64;nan
78121;BME280;67585;44.802;10.332;2024-03-08T02:18:33;101008.16;;;8.83;nan
78121;BME280;67585;44.802;10.332;2024-03-08T02:21:01;101007.13;;;9.12;nan
78121;BME280;67585;44.802;10.332;2024-03-08T02:23:27;100967.56;;;8.79;nan
78121;BME280;67585;44.802;10.332;2024-03-08T02:25:54;101011.91;;;8.93;nan
78121;BME280;67585;44.802;10.332;2024-03-08T02:28:22;101012.66;;;9.06;nan
78121;BME280;67585;44.802;10.332;2024-03-08T02:30:48;101014.41;;;8.71;nan
78121;BME280;67585;44.802;10.332;2024-03-08T02:33:17;100988.16;;;8.50;nan
78121;BME280;67585;44.802;10.332;2024-03-08T02:35:44;101019.31;;;8.51;nan
78121;BME280;67585;44.802;10.332;2024-03-08T02:38:20;101021.84;;;8.10;nan
78121;BME280;67585;44.802;10.332;2024-03-08T02:40:46;101031.31;;;8.25;nan
78121;BME280;67585;44.802;10.332;2024-03-08T02:43:12;101001.13;;;8.41;nan
78121;BME280;67585;44.802;10.332;2024-03-08T02:45:38;101029.00;;;8.28;nan
78121;BME280;67585;44.802;10.332;2024-03-08T02:48:04;101016.59;;;8.27;nan
78121;BME280;67585;44.802;10.332;2024-03-08T02:50:32;101019.78;;;8.60;nan
78121;BME280;67585;44.802;10.332;2024-03-08T02:52:57;101025.50;;;8.40;nan
78121;BME280;67585;44.802;10.332;2024-03-08T02:55:22;100996.78;;;8.05;nan
78121;BME280;67585;44.802;10.332;2024-03-08T02:57:51;101045.13;;;8.40;nan
78121;BME280;67585;44.802;10.332;2024-03-08T03:00:16;101035.28;;;8.22;nan
78121;BME280;67585;44.802;10.332;2024-03-08T03:02:44;101049.28;;;8.36;nan
78121;BME280;67585;44.802;10.332;2024-03-08T03:05:10;101026.28;;;8.05;nan
78121;BME280;67585;44.802;10.332;2024-03-08T03:07:37;101036.81;;;8.18;nan
78121;BME280;67585;44.802;10.332;2024-03-08T03:10:02;101003.31;;;8.21;nan
78121;BME280;67585;44.802;10.332;2024-03-08T03:12:29;101024.22;;;8.19;nan
78121;BME280;67585;44.802;10.332;2024-03-08T03:14:55;101047.31;;;8.31;nan
78121;BME280;67585;44.802;10.332;2024-03-08T03:17:24;101023.47;;;8.00;nan
78121;BME280;67585;44.802;10.332;2024-03-08T03:19:51;101050.81;;;8.32;nan
78121;BME280;67585;44.802;10.332;2024-03-08T03:22:19;101016.13;;;7.95;nan
78121;BME280;67585;44.802;10.332;2024-03-08T03:24:45;101042.28;;;8.23;nan
78121;BME280;67585;44.802;10.332;2024-03-08T03:27:14;101044.50;;;8.14;nan
78121;BME280;67585;44.802;10.332;2024-03-08T03:29:41;101026.66;;;8.08;nan
78121;BME280;67585;44.802;10.332;2024-03-08T03:32:11;101049.19;;;8.31;nan
78121;BME280;67585;44.802;10.332;2024-03-08T03:34:38;101041.44;;;8.23;nan
78121;BME280;67585;44.802;10.332;2024-03-08T03:37:06;101035.16;;;8.29;nan
78121;BME280;67585;44.802;10.332;2024-03-08T03:39:33;101033.75;;;8.73;nan
78121;BME280;67585;44.802;10.332;2024-03-08T03:42:02;101026.06;;;8.65;nan
78121;BME280;67585;44.802;10.332;2024-03-08T03:44:28;101000.00;;;8.77;nan
78121;BME280;67585;44.802;10.332;2024-03-08T03:46:54;101022.69;;;8.70;nan
78121;BME280;67585;44.802;10.332;2024-03-08T03:49:19;101029.03;;;8.52;nan
78121;BME280;67585;44.802;10.332;2024-03-08T03:51:45;101024.53;;;8.81;nan
78121;BME280;67585;44.802;10.332;2024-03-08T03:54:11;101036.59;;;8.55;nan
78121;BME280;67585;44.802;10.332;2024-03-08T03:56:37;101037.97;;;8.81;nan
78121;BME280;67585;44.802;10.332;2024-03-08T03:59:03;101015.00;;;8.62;nan
78121;BME280;67585;44.802;10.332;2024-03-08T04:01:28;101034.97;;;9.06;nan
78121;BME280;67585;44.802;10.332;2024-03-08T04:03:54;101018.25;;;8.28;nan
78121;BME280;67585;44.802;10.332;2024-03-08T04:06:20;101022.56;;;8.76;nan
78121;BME280;67585;44.802;10.332;2024-03-08T04:08:45;101034.25;;;8.59;nan
78121;BME280;67585;44.802;10.332;2024-03-08T04:11:11;101021.97;;;8.27;nan
78121;BME280;67585;44.802;10.332;2024-03-08T04:13:36;101038.22;;;8.21;nan
78121;BME280;67585;44.802;10.332;2024-03-08T04:16:03;101043.00;;;8.54;nan
78121;BME280;67585;44.802;10.332;2024-03-08T04:18:33;101022.69;;;8.46;nan
78121;BME280;67585;44.802;10.332;2024-03-08T04:21:01;101039.84;;;8.69;nan
78121;BME280;67585;44.802;10.332;2024-03-08T04:23:27;101031.13;;;8.50;nan
78121;BME280;67585;44.802;10.332;2024-03-08T04:25:53;101029.69;;;8.59;nan
78121;BME280;67585;44.802;10.332;2024-03-08T04:28:19;101045.69;;;8.66;nan
78121;BME280;67585;44.802;10.332;2024-03-08T04:30:44;101041.28;;;8.48;nan
78121;BME280;67585;44.802;10.332;2024-03-08T04:33:11;101042.19;;;8.42;nan
78121;BME280;67585;44.802;10.332;2024-03-08T04:35:37;101047.69;;;8.47;nan
78121;BME280;67585;44.802;10.332;2024-03-08T04:38:02;101038.69;;;8.65;nan
78121;BME280;67585;44.802;10.332;2024-03-08T04:40:30;101028.63;;;8.72;nan
78121;BME280;67585;44.802;10.332;2024-03-08T04:42:57;101006.56;;;8.23;nan
78121;BME280;67585;44.802;10.332;2024-03-08T04:45:24;101015.19;;;8.13;nan
78121;BME280;67585;44.802;10.332;2024-03-08T04:47:51;101032.41;;;8.47;nan
78121;BME280;67585;44.802;10.332;2024-03-08T04:50:18;101023.72;;;8.33;nan
78121;BME280;67585;44.802;10.332;2024-03-08T04:52:44;101035.78;;;8.43;nan
78121;BME280;67585;44.802;10.332;2024-03-08T04:55:09;101030.88;;;8.28;nan
78121;BME280;67585;44.802;10.332;2024-03-08T04:57:35;101019.66;;;8.31;nan
78121;BME280;67585;44.802;10.332;2024-03-08T05:00:02;101040.47;;;8.47;nan
78121;BME280;67585;44.802;10.332;2024-03-08T05:02:29;101030.63;;;8.76;nan
78121;BME280;67585;44.802;10.332;2024-03-08T05:04:54;101023.19;;;8.55;nan
78121;BME280;67585;44.802;10.332;2024-03-08T05:07:20;101018.59;;;8.32;nan
78121;BME280;67585;44.802;10.332;2024-03-08T05:09:45;101043.25;;;8.64;nan
78121;BME280;67585;44.802;10.332;2024-03-08T05:12:17;101032.41;;;8.47;nan
78121;BME280;67585;44.802;10.332;2024-03-08T05:14:42;101051.16;;;8.24;nan
78121;BME280;67585;44.802;10.332;2024-03-08T05:17:07;101053.03;;;8.23;nan
78121;BME280;67585;44.802;10.332;2024-03-08T05:19:33;101054.75;;;8.06;nan
78121;BME280;67585;44.802;10.332;2024-03-08T05:21:58;101060.75;;;7.78;nan
78121;BME280;67585;44.802;10.332;2024-03-08T05:24:24;101057.44;;;8.06;nan
78121;BME280;67585;44.802;10.332;2024-03-08T05:26:49;101060.81;;;8.01;nan
78121;BME280;67585;44.802;10.332;2024-03-08T05:29:15;101047.44;;;7.71;nan
78121;BME280;67585;44.802;10.332;2024-03-08T05:31:48;101068.81;;;7.78;nan
78121;BME280;67585;44.802;10.332;2024-03-08T05:34:15;101043.41;;;7.92;nan
78121;BME280;67585;44.802;10.332;2024-03-08T05:36:41;101069.31;;;7.86;nan
78121;BME280;67585;44.802;10.332;2024-03-08T05:39:10;101050.63;;;7.80;nan
78121;BME280;67585;44.802;10.332;2024-03-08T05:41:37;101067.31;;;7.82;nan
78121;BME280;67585;44.802;10.332;2024-03-08T05:44:02;101047.44;;;7.71;nan
78121;BME280;67585;44.802;10.332;2024-03-08T05:46:28;101067.34;;;8.05;nan
78121;BME280;67585;44.802;10.332;2024-03-08T05:48:53;101039.69;;;8.05;nan
78121;BME280;67585;44.802;10.332;2024-03-08T05:51:19;101046.94;;;8.04;nan
78121;BME280;67585;44.802;10.332;2024-03-08T05:53:46;101045.72;;;7.88;nan
78121;BME280;67585;44.802;10.332;2024-03-08T05:56:12;101039.81;;;7.56;nan
78121;BME280;67585;44.802;10.332;2024-03-08T05:58:37;101073.41;;;8.12;nan
78121;BME280;67585;44.802;10.332;2024-03-08T06:01:02;101066.31;;;8.06;nan
78121;BME280;67585;44.802;10.332;2024-03-08T06:03:33;101073.75;;;7.92;nan
78121;BME280;67585;44.802;10.332;2024-03-08T06:05:58;101076.91;;;8.01;nan
78121;BME280;67585;44.802;10.332;2024-03-08T06:08:24;101050.63;;;7.80;nan
78121;BME280;67585;44.802;10.332;2024-03-08T06:10:55;101081.88;;;7.86;nan
78121;BME280;67585;44.802;10.332;2024-03-08T06:13:21;101080.22;;;7.73;nan
78121;BME280;67585;44.802;10.332;2024-03-08T06:15:46;101086.09;;;7.93;nan
78121;BME280;67585;44.802;10.332;2024-03-08T06:18:12;101078.31;;;8.04;nan
78121;BME280;67585;44.802;10.332;2024-03-08T06:20:37;101090.31;;;7.89;nan
78121;BME280;67585;44.802;10.332;2024-03-08T06:23:02;101084.00;;;7.96;nan
78121;BME280;67585;44.802;10.332;2024-03-08T06:25:28;101069.16;;;7.69;nan
78121;BME280;67585;44.802;10.332;2024-03-08T06:27:53;101088.34;;;7.97;nan
78121;BME280;67585;44.802;10.332;2024-03-08T06:30:19;101068.47;;;7.86;nan
78121;BME280;67585;44.802;10.332;2024-03-08T06:32:45;101074.22;;;7.89;nan
78121;BME280;67585;44.802;10.332;2024-03-08T06:35:10;101067.47;;;7.99;nan
78121;BME280;67585;44.802;10.332;2024-03-08T06:37:36;101074.50;;;7.81;nan
78121;BME280;67585;44.802;10.332;2024-03-08T06:40:02;101102.72;;;8.14;nan
78121;BME280;67585;44.802;10.332;2024-03-08T06:42:33;101090.22;;;7.96;nan
78121;BME280;67585;44.802;10.332;2024-03-08T06:45:00;101103.88;;;8.06;nan
78121;BME280;67585;44.802;10.332;2024-03-08T06:47:33;101107.00;;;7.91;nan
78121;BME280;67585;44.802;10.332;2024-03-08T06:49:58;101089.78;;;7.81;nan
78121;BME280;67585;44.802;10.332;2024-03-08T06:52:23;101099.38;;;8.30;nan
78121;BME280;67585;44.802;10.332;2024-03-08T06:54:49;101083.16;;;8.61;nan
78121;BME280;67585;44.802;10.332;2024-03-08T06:57:14;101068.44;;;8.75;nan
78121;BME280;67585;44.802;10.332;2024-03-08T06:59:42;101085.03;;;8.72;nan
78121;BME280;67585;44.802;10.332;2024-03-08T07:02:07;101071.03;;;8.58;nan
78121;BME280;67585;44.802;10.332;2024-03-08T07:04:34;101082.91;;;8.39;nan
78121;BME280;67585;44.802;10.332;2024-03-08T07:07:04;101086.78;;;8.66;nan
78121;BME280;67585;44.802;10.332;2024-03-08T07:09:29;101069.34;;;8.92;nan
78121;BME280;67585;44.802;10.332;2024-03-08T07:11:55;101064.13;;;8.74;nan
78121;BME280;67585;44.802;10.332;2024-03-08T07:14:23;101066.41;;;9.06;nan
78121;BME280;67585;44.802;10.332;2024-03-08T07:16:49;101068.81;;;9.19;nan
78121;BME280;67585;44.802;10.332;2024-03-08T07:19:15;101070.81;;;9.12;nan
78121;BME280;67585;44.802;10.332;2024-03-08T07:21:41;101078.19;;;9.05;nan
78121;BME280;67585;44.802;10.332;2024-03-08T07:24:07;101064.84;;;8.81;nan
78121;BME280;67585;44.802;10.332;2024-03-08T07:26:42;101085.75;;;8.67;nan
78121;BME280;67585;44.802;10.332;2024-03-08T07:29:07;101086.75;;;9.02;nan
78121;BME280;67585;44.802;10.332;2024-03-08T07:31:33;101082.44;;;8.18;nan
78121;BME280;67585;44.802;10.332;2024-03-08T07:34:07;101095.63;;;8.31;nan
78121;BME280;67585;44.802;10.332;2024-03-08T07:36:45;101099.22;;;8.37;nan
78121;BME280;67585;44.802;10.332;2024-03-08T07:39:16;101104.16;;;8.64;nan
78121;BME280;67585;44.802;10.332;2024-03-08T07:41:41;101106.97;;;8.81;nan
78121;BME280;67585;44.802;10.332;2024-03-08T07:44:07;101100.47;;;8.76;nan
78121;BME280;67585;44.802;10.332;2024-03-08T07:46:33;101114.69;;;8.53;nan
78121;BME280;67585;44.802;10.332;2024-03-08T07:49:02;101117.88;;;8.08;nan
78121;BME280;67585;44.802;10.332;2024-03-08T07:51:28;101094.19;;;8.17;nan
78121;BME280;67585;44.802;10.332;2024-03-08T07:53:53;101093.63;;;8.27;nan
78121;BME280;67585;44.802;10.332;2024-03-08T07:56:20;101116.91;;;8.03;nan
78121;BME280;67585;44.802;10.332;2024-03-08T07:58:47;101096.28;;;8.15;nan
78121;BME280;67585;44.802;10.332;2024-03-08T08:01:18;101084.13;;;8.43;nan
78121;BME280;67585;44.802;10.332;2024-03-08T08:03:44;101101.59;;;8.69;nan
78121;BME280;67585;44.802;10.332;2024-03-08T08:06:10;101110.34;;;8.88;nan
78121;BME280;67585;44.802;10.332;2024-03-08T08:08:41;101097.06;;;8.69;nan
78121;BME280;67585;44.802;10.332;2024-03-08T08:11:07;101070.44;;;8.44;nan
78121;BME280;67585;44.802;10.332;2024-03-08T08:13:34;101105.13;;;8.46;nan
78121;BME280;67585;44.802;10.332;2024-03-08T08:15:59;101114.47;;;8.55;nan
78121;BME280;67585;44.802;10.332;2024-03-08T08:18:25;101105.28;;;8.32;nan
78121;BME280;67585;44.802;10.332;2024-03-08T08:20:51;101118.88;;;8.61;nan
78121;BME280;67585;44.802;10.332;2024-03-08T08:23:17;101097.50;;;8.78;nan
78121;BME280;67585;44.802;10.332;2024-03-08T08:25:45;101103.69;;;8.78;nan
78121;BME280;67585;44.802;10.332;2024-03-08T08:28:10;101108.41;;;8.60;nan
78121;BME280;67585;44.802;10.332;2024-03-08T08:30:37;101121.41;;;8.32;nan
78121;BME280;67585;44.802;10.332;2024-03-08T08:33:03;101115.75;;;8.41;nan
78121;BME280;67585;44.802;10.332;2024-03-08T08:35:30;101116.44;;;8.48;nan
78121;BME280;67585;44.802;10.332;2024-03-08T08:37:56;101120.84;;;8.30;nan
78121;BME280;67585;44.802;10.332;2024-03-08T08:40:22;101114.31;;;8.97;nan
78121;BME280;67585;44.802;10.332;2024-03-08T08:42:48;101090.84;;;8.69;nan
78121;BME280;67585;44.802;10.332;2024-03-08T08:45:13;101089.22;;;8.80;nan
78121;BME280;67585;44.802;10.332;2024-03-08T08:47:39;101105.16;;;9.22;nan
78121;BME280;67585;44.802;10.332;2024-03-08T08:50:08;101113.03;;;9.52;nan
78121;BME280;67585;44.802;10.332;2024-03-08T08:52:37;101115.09;;;9.21;nan
78121;BME280;67585;44.802;10.332;2024-03-08T08:55:03;101080.09;;;8.92;nan
78121;BME280;67585;44.802;10.332;2024-03-08T08:57:29;101110.34;;;9.52;nan
78121;BME280;67585;44.802;10.332;2024-03-08T08:59:56;101106.53;;;9.36;nan
78121;BME280;67585;44.802;10.332;2024-03-08T09:02:22;101101.94;;;8.96;nan
78121;BME280;67585;44.802;10.332;2024-03-08T09:04:48;101114.69;;;9.01;nan
78121;BME280;67585;44.802;10.332;2024-03-08T09:07:14;101113.50;;;9.77;nan
78121;BME280;67585;44.802;10.332;2024-03-08T09:09:39;101077.53;;;9.38;nan
78121;BME280;67585;44.802;10.332;2024-03-08T09:12:05;101103.22;;;9.46;nan
78121;BME280;67585;44.802;10.332;2024-03-08T09:14:30;101096.72;;;9.30;nan
78121;BME280;67585;44.802;10.332;2024-03-08T09:16:56;101093.59;;;9.21;nan
78121;BME280;67585;44.802;10.332;2024-03-08T09:19:24;101107.31;;;9.77;nan
78121;BME280;67585;44.802;10.332;2024-03-08T09:21:51;101076.84;;;9.59;nan
78121;BME280;67585;44.802;10.332;2024-03-08T09:24:17;101108.53;;;9.86;nan
78121;BME280;67585;44.802;10.332;2024-03-08T09:26:42;101089.50;;;9.59;nan
78121;BME280;67585;44.802;10.332;2024-03-08T09:29:08;101105.88;;;9.57;nan
78121;BME280;67585;44.802;10.332;2024-03-08T09:31:36;101101.09;;;9.48;nan
78121;BME280;67585;44.802;10.332;2024-03-08T09:34:03;101122.00;;;9.57;nan
78121;BME280;67585;44.802;10.332;2024-03-08T09:36:28;101114.47;;;9.71;nan
78121;BME280;67585;44.802;10.332;2024-03-08T09:38:53;101100.28;;;9.76;nan
78121;BME280;67585;44.802;10.332;2024-03-08T09:41:19;101105.25;;;9.67;nan
78121;BME280;67585;44.802;10.332;2024-03-08T09:43:45;101091.84;;;9.55;nan
78121;BME280;67585;44.802;10.332;2024-03-08T09:46:12;101104.06;;;9.63;nan
78121;BME280;67585;44.802;10.332;2024-03-08T09:48:39;101123.19;;;9.50;nan
78121;BME280;67585;44.802;10.332;2024-03-08T09:51:06;101122.25;;;9.44;nan
78121;BME280;67585;44.802;10.332;2024-03-08T09:53:33;101071.28;;;9.20;nan
78121;BME280;67585;44.802;10.332;2024-03-08T09:55:58;101085.56;;;9.50;nan
78121;BME280;67585;44.802;10.332;2024-03-08T09:58:24;101070.31;;;9.27;nan
78121;BME280;67585;44.802;10.332;2024-03-08T10:00:53;101090.97;;;9.67;nan
78121;BME280;67585;44.802;10.332;2024-03-08T10:03:19;101116.78;;;9.96;nan
78121;BME280;67585;44.802;10.332;2024-03-08T10:05:45;101119.63;;;9.90;nan
78121;BME280;67585;44.802;10.332;2024-03-08T10:08:12;101095.47;;;9.78;nan
78121;BME280;67585;44.802;10.332;2024-03-08T10:10:38;101101.88;;;9.89;nan
78121;BME280;67585;44.802;10.332;2024-03-08T10:13:10;101113.16;;;10.02;nan
78121;BME280;67585;44.802;10.332;2024-03-08T10:15:39;101101.50;;;9.85;nan
78121;BME280;67585;44.802;10.332;2024-03-08T10:18:06;101106.34;;;10.00;nan
78121;BME280;67585;44.802;10.332;2024-03-08T10:20:34;101090.88;;;10.24;nan
78121;BME280;67585;44.802;10.332;2024-03-08T10:23:00;101108.66;;;10.25;nan
78121;BME280;67585;44.802;10.332;2024-03-08T10:25:26;101105.63;;;10.04;nan
78121;BME280;67585;44.802;10.332;2024-03-08T10:27:52;101105.66;;;10.38;nan
78121;BME280;67585;44.802;10.332;2024-03-08T10:30:17;101106.72;;;10.20;nan
78121;BME280;67585;44.802;10.332;2024-03-08T10:32:47;101090.84;;;9.90;nan
78121;BME280;67585;44.802;10.332;2024-03-08T10:35:13;101077.94;;;9.75;nan
78121;BME280;67585;44.802;10.332;2024-03-08T10:37:50;101108.06;;;9.89;nan
78121;BME280;67585;44.802;10.332;2024-03-08T10:40:24;101093.00;;;10.05;nan
78121;BME280;67585;44.802;10.332;2024-03-08T10:42:57;101095.28;;;10.13;nan
78121;BME280;67585;44.802;10.332;2024-03-08T10:45:29;101101.31;;;10.20;nan
78121;BME280;67585;44.802;10.332;2024-03-08T10:48:07;101072.63;;;9.80;nan
78121;BME280;67585;44.802;10.332;2024-03-08T10:50:35;101073.22;;;9.82;nan
78121;BME280;67585;44.802;10.332;2024-03-08T10:53:01;101086.94;;;9.81;nan
78121;BME280;67585;44.802;10.332;2024-03-08T10:55:28;101097.75;;;10.15;nan
78121;BME280;67585;44.802;10.332;2024-03-08T10:57:54;101087.69;;;10.10;nan
78121;BME280;67585;44.802;10.332;2024-03-08T11:00:22;101066.47;;;9.97;nan
78121;BME280;67585;44.802;10.332;2024-03-08T11:02:53;101064.28;;;10.11;nan
78121;BME280;67585;44.802;10.332;2024-03-08T11:08:17;101096.50;;;10.22;nan
78121;BME280;67585;44.802;10.332;2024-03-08T11:10:52;101079.63;;;10.10;nan
78121;BME280;67585;44.802;10.332;2024-03-08T11:13:39;101062.09;;;10.08;nan
78121;BME280;67585;44.802;10.332;2024-03-08T11:16:11;100936.81;;;9.32;nan
78121;BME280;67585;44.802;10.332;2024-03-08T11:18:38;101083.94;;;10.62;nan
78121;BME280;67585;44.802;10.332;2024-03-08T11:21:04;101074.31;;;10.15;nan
78121;BME280;67585;44.802;10.332;2024-03-08T11:23:33;100904.63;;;9.20;nan
78121;BME280;67585;44.802;10.332;2024-03-08T11:25:59;100987.53;;;9.74;nan
78121;BME280;67585;44.802;10.332;2024-03-08T11:28:25;101001.06;;;9.79;nan
78121;BME280;67585;44.802;10.332;2024-03-08T11:33:28;100996.13;;;9.88;nan
78121;BME280;67585;44.802;10.332;2024-03-08T11:36:08;101063.88;;;10.36;nan
78121;BME280;67585;44.802;10.332;2024-03-08T11:38:46;101033.28;;;10.42;nan
78121;BME280;67585;44.802;10.332;2024-03-08T11:41:16;101049.78;;;10.67;nan
78121;BME280;67585;44.802;10.332;2024-03-08T11:43:43;101032.38;;;10.75;nan
78121;BME280;67585;44.802;10.332;2024-03-08T11:46:12;101056.53;;;10.48;nan
78121;BME280;67585;44.802;10.332;2024-03-08T11:48:42;101014.44;;;10.42;nan
78121;BME280;67585;44.802;10.332;2024-03-08T11:51:15;101008.63;;;10.50;nan
78121;BME280;67585;44.802;10.332;2024-03-08T11:53:43;101056.25;;;10.66;nan
78121;BME280;67585;44.802;10.332;2024-03-08T11:56:13;101054.84;;;10.42;nan
78121;BME280;67585;44.802;10.332;2024-03-08T11:58:40;101018.59;;;10.16;nan
78121;BME280;67585;44.802;10.332;2024-03-08T12:01:07;101022.63;;;10.30;nan
78121;BME280;67585;44.802;10.332;2024-03-08T12:03:34;101046.94;;;10.74;nan
78121;BME280;67585;44.802;10.332;2024-03-08T12:06:00;101027.53;;;10.55;nan
78121;BME280;67585;44.802;10.332;2024-03-08T12:08:27;101022.84;;;10.67;nan
78121;BME280;67585;44.802;10.332;2024-03-08T12:10:54;101025.75;;;10.61;nan
78121;BME280;67585;44.802;10.332;2024-03-08T12:13:28;101014.69;;;10.62;nan
78121;BME280;67585;44.802;10.332;2024-03-08T12:15:58;101024.94;;;10.43;nan
78121;BME280;67585;44.802;10.332;2024-03-08T12:18:27;100992.91;;;10.08;nan
78121;BME280;67585;44.802;10.332;2024-03-08T12:21:06;101011.25;;;10.11;nan
78121;BME280;67585;44.802;10.332;2024-03-08T12:23:42;101022.44;;;10.37;nan
78121;BME280;67585;44.802;10.332;2024-03-08T12:26:15;101010.94;;;10.24;nan
78121;BME280;67585;44.802;10.332;2024-03-08T12:28:44;101017.31;;;10.35;nan
78121;BME280;67585;44.802;10.332;2024-03-08T12:31:16;101009.16;;;10.30;nan
78121;BME280;67585;44.802;10.332;2024-03-08T12:33:55;100987.00;;;10.45;nan
78121;BME280;67585;44.802;10.332;2024-03-08T12:36:24;100966.31;;;10.29;nan
78121;BME280;67585;44.802;10.332;2024-03-08T12:38:51;100980.88;;;10.50;nan
78121;BME280;67585;44.802;10.332;2024-03-08T12:41:17;100959.00;;;10.46;nan
78121;BME280;67585;44.802;10.332;2024-03-08T12:43:43;100992.78;;;10.54;nan
78121;BME280;67585;44.802;10.332;2024-03-08T12:46:15;100980.19;;;10.59;nan
78121;BME280;67585;44.802;10.332;2024-03-08T12:48:41;100986.38;;;10.60;nan
78121;BME280;67585;44.802;10.332;2024-03-08T12:51:10;100985.19;;;10.73;nan
78121;BME280;67585;44.802;10.332;2024-03-08T12:53:36;100982.88;;;10.59;nan
78121;BME280;67585;44.802;10.332;2024-03-08T12:56:02;100984.91;;;10.30;nan
78121;BME280;67585;44.802;10.332;2024-03-08T12:58:29;100986.06;;;10.17;nan
78121;BME280;67585;44.802;10.332;2024-03-08T13:00:56;100988.56;;;10.24;nan
78121;BME280;67585;44.802;10.332;2024-03-08T13:03:24;100958.63;;;10.37;nan
78121;BME280;67585;44.802;10.332;2024-03-08T13:05:50;100984.16;;;10.74;nan
78121;BME280;67585;44.802;10.332;2024-03-08T13:08:15;100976.94;;;10.57;nan
78121;BME280;67585;44.802;10.332;2024-03-08T13:10:43;100993.81;;;10.31;nan
78121;BME280;67585;44.802;10.332;2024-03-08T13:13:11;100977.78;;;10.24;nan
78121;BME280;67585;44.802;10.332;2024-03-08T13:15:37;100980.97;;;10.38;nan